createdAt,value
2018-12-09T00:02:03.433Z,19.70
2018-12-09T00:04:30.710Z,18.43
2018-12-09T00:06:57.893Z,21.23
2018-12-09T00:09:25.186Z,21.33
2018-12-09T00:11:52.254Z,13.63
2018-12-09T00:14:19.322Z,20.63
2018-12-09T00:16:46.594Z,25.93
2018-12-09T00:19:13.774Z,19.53
2018-12-09T00:21:40.963Z,19.07
2018-12-09T00:24:08.246Z,22.67
2018-12-09T00:26:35.298Z,25.87
2018-12-09T00:29:02.606Z,18.97
2018-12-09T00:31:29.658Z,18.87
2018-12-09T00:33:56.801Z,20.90
2018-12-09T00:36:24.099Z,23.77
2018-12-09T00:38:51.233Z,21.13
2018-12-09T00:41:18.423Z,17.07
2018-12-09T00:43:45.616Z,18.17
2018-12-09T00:46:12.787Z,18.63
2018-12-09T00:48:39.853Z,20.43
2018-12-09T00:51:07.134Z,17.80
2018-12-09T00:53:34.307Z,14.93
2018-12-09T00:56:01.622Z,17.00
2018-12-09T00:58:28.793Z,18.60
2018-12-09T01:00:55.987Z,14.87
2018-12-09T01:03:23.162Z,15.43
2018-12-09T01:05:50.445Z,20.50
2018-12-09T01:08:17.623Z,18.53
2018-12-09T01:10:44.802Z,19.50
2018-12-09T01:13:12.100Z,18.50
2018-12-09T01:15:39.177Z,18.60
2018-12-09T01:18:06.354Z,20.50
2018-12-09T01:20:33.539Z,18.13
2018-12-09T01:23:00.632Z,19.53
2018-12-09T01:25:27.722Z,19.27
2018-12-09T01:27:55.028Z,15.57
2018-12-09T01:30:22.311Z,20.53
2018-12-09T01:32:49.406Z,21.43
2018-12-09T01:35:16.713Z,19.13
2018-12-09T01:37:43.891Z,20.30
2018-12-09T01:40:11.170Z,18.43
2018-12-09T01:42:38.238Z,20.30
2018-12-09T01:45:05.529Z,23.20
2018-12-09T01:47:32.607Z,20.47
2018-12-09T01:49:59.793Z,18.23
2018-12-09T01:52:27.062Z,18.80
2018-12-09T01:54:54.258Z,14.30
2018-12-09T01:57:21.443Z,14.93
2018-12-09T01:59:48.606Z,19.63
2018-12-09T02:02:15.878Z,16.73
2018-12-09T02:04:42.956Z,19.13
2018-12-09T02:07:10.238Z,15.93
2018-12-09T02:09:37.414Z,20.10
2018-12-09T02:12:05.103Z,18.17
2018-12-09T02:14:32.299Z,17.13
2018-12-09T02:16:59.479Z,21.93
2018-12-09T02:19:26.910Z,21.10
2018-12-09T02:21:54.335Z,20.37
2018-12-09T02:24:21.879Z,19.00
2018-12-09T02:26:49.418Z,22.83
2018-12-09T02:29:16.698Z,21.63
2018-12-09T02:31:44.051Z,22.60
2018-12-09T02:34:11.134Z,17.13
2018-12-09T02:36:38.322Z,16.67
2018-12-09T02:39:07.224Z,18.07
2018-12-09T02:41:34.546Z,15.60
2018-12-09T02:44:01.822Z,19.83
2018-12-09T02:46:29.214Z,18.40
2018-12-09T02:48:56.552Z,15.13
2018-12-09T02:51:23.844Z,18.70
2018-12-09T02:53:51.123Z,12.80
2018-12-09T02:56:18.298Z,14.17
2018-12-09T02:58:45.595Z,15.30
2018-12-09T03:01:12.988Z,13.93
2018-12-09T03:03:40.286Z,14.57
2018-12-09T03:06:07.469Z,12.60
2018-12-09T03:08:34.762Z,11.60
2018-12-09T03:11:01.843Z,10.57
2018-12-09T03:13:29.025Z,12.30
2018-12-09T03:15:56.299Z,9.23
2018-12-09T03:18:23.587Z,10.50
2018-12-09T03:20:50.747Z,15.13
2018-12-09T03:23:17.934Z,9.27
2018-12-09T03:25:44.996Z,13.30
2018-12-09T03:28:12.107Z,14.13
2018-12-09T03:30:39.494Z,13.97
2018-12-09T03:33:06.758Z,14.43
2018-12-09T03:35:34.070Z,15.70
2018-12-09T03:38:01.347Z,15.77
2018-12-09T03:40:28.847Z,19.67
2018-12-09T03:42:56.036Z,14.70
2018-12-09T03:45:23.226Z,14.93
2018-12-09T03:47:50.427Z,21.47
2018-12-09T03:50:17.620Z,19.83
2018-12-09T03:52:44.802Z,20.63
2018-12-09T03:55:12.092Z,24.97
2018-12-09T03:57:39.271Z,15.03
2018-12-09T04:00:06.958Z,21.67
2018-12-09T04:02:34.118Z,19.67
2018-12-09T04:05:01.312Z,20.17
2018-12-09T04:07:28.478Z,12.67
2018-12-09T04:09:55.547Z,12.33
2018-12-09T04:12:22.725Z,13.57
2018-12-09T04:14:50.018Z,14.00
2018-12-09T04:17:17.299Z,14.73
2018-12-09T04:19:44.371Z,13.57
2018-12-09T04:22:11.538Z,15.73
2018-12-09T04:24:38.735Z,13.40
2018-12-09T04:27:06.106Z,20.17
2018-12-09T04:29:33.326Z,17.60
2018-12-09T04:32:00.586Z,16.27
2018-12-09T04:34:27.653Z,14.37
2018-12-09T04:36:54.838Z,14.20
2018-12-09T04:39:22.230Z,18.73
2018-12-09T04:41:49.519Z,13.43
2018-12-09T04:44:16.704Z,18.17
2018-12-09T04:46:44.004Z,12.57
2018-12-09T04:49:11.397Z,15.87
2018-12-09T04:51:58.108Z,14.70
2018-12-09T04:54:26.158Z,14.83
2018-12-09T04:56:53.458Z,20.73
2018-12-09T04:59:21.491Z,17.93
2018-12-09T05:01:48.798Z,12.97
2018-12-09T05:04:16.578Z,22.20
2018-12-09T05:06:43.888Z,24.03
2018-12-09T05:09:11.001Z,19.70
2018-12-09T05:11:38.299Z,17.40
2018-12-09T05:14:05.587Z,17.10
2018-12-09T05:16:32.985Z,15.10
2018-12-09T05:19:00.297Z,17.80
2018-12-09T05:21:27.530Z,22.35
2018-12-09T05:23:54.594Z,16.53
2018-12-09T05:26:22.086Z,22.47
2018-12-09T05:28:49.258Z,23.47
2018-12-09T05:31:16.543Z,18.03
2018-12-09T05:33:43.827Z,19.63
2018-12-09T05:36:11.014Z,20.13
2018-12-09T05:38:38.496Z,15.47
2018-12-09T05:41:05.899Z,16.60
2018-12-09T05:43:33.024Z,17.03
2018-12-09T05:46:00.200Z,17.13
2018-12-09T05:48:27.486Z,19.07
2018-12-09T05:50:54.678Z,20.17
2018-12-09T05:53:21.746Z,18.03
2018-12-09T05:55:48.913Z,18.93
2018-12-09T05:58:16.003Z,20.77
2018-12-09T06:00:43.206Z,22.00
2018-12-09T06:03:10.389Z,19.27
2018-12-09T06:05:37.775Z,25.57
2018-12-09T06:08:05.058Z,19.03
2018-12-09T06:10:32.330Z,17.40
2018-12-09T06:12:59.449Z,22.53
2018-12-09T06:15:26.625Z,22.87
2018-12-09T06:17:54.094Z,21.83
2018-12-09T06:20:21.389Z,21.73
2018-12-09T06:22:48.566Z,20.70
2018-12-09T06:25:15.741Z,21.93
2018-12-09T06:27:43.039Z,17.83
2018-12-09T06:30:13.024Z,20.23
2018-12-09T06:32:40.166Z,22.67
2018-12-09T06:35:07.690Z,20.73
2018-12-09T06:37:34.778Z,16.53
2018-12-09T06:40:02.298Z,20.73
2018-12-09T06:42:29.494Z,22.67
2018-12-09T06:44:56.795Z,17.77
2018-12-09T06:47:23.987Z,17.80
2018-12-09T06:49:51.082Z,21.53
2018-12-09T06:52:18.146Z,18.47
2018-12-09T06:54:45.314Z,15.27
2018-12-09T06:57:12.799Z,14.53
2018-12-09T06:59:40.164Z,15.57
2018-12-09T07:02:07.559Z,20.03
2018-12-09T07:04:34.629Z,21.10
2018-12-09T07:07:01.702Z,14.50
2018-12-09T07:09:28.774Z,18.00
2018-12-09T07:11:56.166Z,16.30
2018-12-09T07:14:23.369Z,14.50
2018-12-09T07:16:50.436Z,16.33
2018-12-09T07:19:17.651Z,17.00
2018-12-09T07:21:44.714Z,18.60
2018-12-09T07:24:12.186Z,19.17
2018-12-09T07:26:39.255Z,25.00
2018-12-09T07:29:06.662Z,15.40
2018-12-09T07:31:34.058Z,15.77
2018-12-09T07:34:01.131Z,21.03
2018-12-09T07:36:28.428Z,18.00
2018-12-09T07:38:55.621Z,22.63
2018-12-09T07:41:22.891Z,19.73
2018-12-09T07:43:49.983Z,16.53
2018-12-09T07:46:17.176Z,18.73
2018-12-09T07:48:44.262Z,17.47
2018-12-09T07:51:12.048Z,17.17
2018-12-09T07:53:39.439Z,19.90
2018-12-09T07:56:06.618Z,19.80
2018-12-09T07:58:33.690Z,19.97
2018-12-09T08:01:00.987Z,15.33
2018-12-09T08:03:28.059Z,15.53
2018-12-09T08:05:55.338Z,19.30
2018-12-09T08:08:22.398Z,15.60
2018-12-09T08:10:49.591Z,16.60
2018-12-09T08:13:16.777Z,18.00
2018-12-09T08:15:43.857Z,18.83
2018-12-09T08:18:11.047Z,16.33
2018-12-09T08:20:38.368Z,15.83
2018-12-09T08:23:05.554Z,14.20
2018-12-09T08:25:32.738Z,17.00
2018-12-09T08:27:59.802Z,16.70
2018-12-09T08:30:26.894Z,13.27
2018-12-09T08:32:53.956Z,15.00
2018-12-09T08:35:21.155Z,14.87
2018-12-09T08:37:48.327Z,20.27
2018-12-09T08:40:15.542Z,17.20
2018-12-09T08:42:42.650Z,15.30
2018-12-09T08:45:09.955Z,17.87
2018-12-09T08:47:37.078Z,19.70
2018-12-09T08:50:04.790Z,16.63
2018-12-09T08:52:31.985Z,17.97
2018-12-09T08:54:59.082Z,18.97
2018-12-09T08:57:26.280Z,19.90
2018-12-09T08:59:53.338Z,15.33
2018-12-09T09:02:20.435Z,18.47
2018-12-09T09:04:47.507Z,16.37
2018-12-09T09:07:14.618Z,18.15
2018-12-09T09:09:41.810Z,19.90
2018-12-09T09:12:08.975Z,15.83
2018-12-09T09:14:36.066Z,18.67
2018-12-09T09:17:03.242Z,19.53
2018-12-09T09:19:30.409Z,15.57
2018-12-09T09:21:57.600Z,21.87
2018-12-09T09:24:24.800Z,14.10
2018-12-09T09:26:51.939Z,21.50
2018-12-09T09:29:19.238Z,20.47
2018-12-09T09:31:46.331Z,21.03
2018-12-09T09:34:13.415Z,19.50
2018-12-09T09:36:40.638Z,21.77
2018-12-09T09:39:07.726Z,17.17
2018-12-09T09:41:34.913Z,20.43
2018-12-09T09:44:02.331Z,19.80
2018-12-09T09:46:29.526Z,14.57
2018-12-09T09:48:56.616Z,16.17
2018-12-09T09:51:23.700Z,11.93
2018-12-09T09:53:50.770Z,15.90
2018-12-09T09:56:18.086Z,19.00
2018-12-09T09:58:45.171Z,21.50
2018-12-09T10:01:12.477Z,19.03
2018-12-09T10:03:39.554Z,16.93
2018-12-09T10:06:06.757Z,12.17
2018-12-09T10:08:33.814Z,18.07
2018-12-09T10:11:00.878Z,15.43
2018-12-09T10:13:28.052Z,10.90
2018-12-09T10:15:55.138Z,10.70
2018-12-09T10:18:22.311Z,14.10
2018-12-09T10:20:49.395Z,13.40
2018-12-09T10:23:16.493Z,15.37
2018-12-09T10:25:43.798Z,13.07
2018-12-09T10:28:10.992Z,14.37
2018-12-09T10:30:38.187Z,15.10
2018-12-09T10:33:05.284Z,8.27
2018-12-09T10:35:32.494Z,11.97
2018-12-09T10:37:59.571Z,11.90
2018-12-09T10:40:26.647Z,11.45
2018-12-09T10:42:53.831Z,13.50
2018-12-09T10:45:21.019Z,14.07
2018-12-09T10:47:48.206Z,15.25
2018-12-09T10:50:15.433Z,15.95
2018-12-09T10:52:42.519Z,11.30
2018-12-09T10:55:09.691Z,13.40
2018-12-09T10:57:36.762Z,9.83
2018-12-09T11:00:04.207Z,14.40
2018-12-09T11:02:31.274Z,20.77
2018-12-09T11:04:58.330Z,12.77
2018-12-09T11:07:25.409Z,15.37
2018-12-09T11:09:52.522Z,20.00
2018-12-09T11:12:19.694Z,12.30
2018-12-09T11:14:46.773Z,16.73
2018-12-09T11:17:14.067Z,19.00
2018-12-09T11:19:41.129Z,16.47
2018-12-09T11:22:08.299Z,18.07
2018-12-09T11:24:35.475Z,16.30
2018-12-09T11:27:02.666Z,22.40
2018-12-09T11:29:29.851Z,15.87
2018-12-09T11:31:56.927Z,14.37
2018-12-09T11:34:24.088Z,15.60
2018-12-09T11:36:51.231Z,17.60
2018-12-09T11:39:18.491Z,17.17
2018-12-09T11:41:45.562Z,23.17
2018-12-09T11:44:12.754Z,17.27
2018-12-09T11:46:39.849Z,17.60
2018-12-09T11:49:07.115Z,20.03
2018-12-09T11:51:34.334Z,8.27
2018-12-09T11:54:01.532Z,6.70
2018-12-09T11:56:28.838Z,7.03
2018-12-09T11:58:55.928Z,11.63
2018-12-09T12:01:23.006Z,5.33
2018-12-09T12:03:50.074Z,7.30
2018-12-09T12:06:17.147Z,5.20
2018-12-09T12:08:44.386Z,7.87
2018-12-09T12:11:11.515Z,7.97
2018-12-09T12:13:38.602Z,7.20
2018-12-09T12:16:05.794Z,8.05
2018-12-09T12:18:32.862Z,7.97
2018-12-09T12:21:00.172Z,6.80
2018-12-09T12:23:27.258Z,7.97
2018-12-09T12:25:54.880Z,10.70
2018-12-09T12:28:22.082Z,6.80
2018-12-09T12:30:49.958Z,9.90
2018-12-09T12:33:17.138Z,7.25
2018-12-09T12:35:44.198Z,8.30
2018-12-09T12:38:11.391Z,9.53
2018-12-09T12:40:38.578Z,9.53
2018-12-09T12:43:05.866Z,11.20
2018-12-09T12:45:33.170Z,10.40
2018-12-09T12:48:00.558Z,10.03
2018-12-09T12:50:27.858Z,12.77
2018-12-09T12:52:54.934Z,8.50
2018-12-09T12:55:22.234Z,14.15
2018-12-09T12:57:49.323Z,11.80
2018-12-09T13:00:17.627Z,13.50
2018-12-09T13:02:44.918Z,11.07
2018-12-09T13:05:12.210Z,11.70
2018-12-09T13:07:39.327Z,10.07
2018-12-09T13:10:06.763Z,7.33
2018-12-09T13:12:33.951Z,6.70
2018-12-09T13:15:01.054Z,4.47
2018-12-09T13:17:28.242Z,9.93
2018-12-09T13:19:55.442Z,5.07
2018-12-09T13:22:22.530Z,9.93
2018-12-09T13:24:49.722Z,8.03
2018-12-09T13:27:16.954Z,7.83
2018-12-09T13:29:44.150Z,9.20
2018-12-09T13:32:11.352Z,7.60
2018-12-09T13:34:38.629Z,5.23
2018-12-09T13:37:05.810Z,9.27
2018-12-09T13:39:32.995Z,10.23
2018-12-09T13:42:00.066Z,11.43
2018-12-09T13:44:27.230Z,6.43
2018-12-09T13:46:54.420Z,8.30
2018-12-09T13:49:21.602Z,10.47
2018-12-09T13:51:48.782Z,11.77
2018-12-09T13:54:15.867Z,9.83
2018-12-09T13:56:43.091Z,7.40
2018-12-09T13:59:10.281Z,6.60
2018-12-09T14:01:37.352Z,10.70
2018-12-09T14:04:04.544Z,9.00
2018-12-09T14:06:31.606Z,9.73
2018-12-09T14:08:58.690Z,11.03
2018-12-09T14:11:25.885Z,8.17
2018-12-09T14:13:53.003Z,11.07
2018-12-09T14:16:20.076Z,7.97
2018-12-09T14:18:47.515Z,8.50
2018-12-09T14:21:14.617Z,9.37
2018-12-09T14:23:43.019Z,7.30
2018-12-09T14:26:10.327Z,3.87
2018-12-09T14:28:37.430Z,7.73
2018-12-09T14:31:04.634Z,9.23
2018-12-09T14:33:31.842Z,5.53
2018-12-09T14:35:59.022Z,7.33
2018-12-09T14:38:26.463Z,8.03
2018-12-09T14:40:53.807Z,7.10
2018-12-09T14:43:20.906Z,9.97
2018-12-09T14:45:49.069Z,7.63
2018-12-09T14:48:16.381Z,9.27
2018-12-09T14:50:43.461Z,10.53
2018-12-09T14:53:10.637Z,8.87
2018-12-09T14:55:37.752Z,11.73
2018-12-09T14:58:04.833Z,9.93
2018-12-09T15:00:32.030Z,9.23
2018-12-09T15:02:59.114Z,9.00
2018-12-09T15:05:26.270Z,9.93
2018-12-09T15:07:53.355Z,7.30
2018-12-09T15:10:20.651Z,10.60
2018-12-09T15:12:47.960Z,8.10
2018-12-09T15:15:15.039Z,12.63
2018-12-09T15:17:42.131Z,12.33
2018-12-09T15:20:09.229Z,9.87
2018-12-09T15:22:36.406Z,11.23
2018-12-09T15:25:04.974Z,12.07
2018-12-09T15:27:32.070Z,10.83
2018-12-09T15:29:59.154Z,13.37
2018-12-09T15:32:26.272Z,9.67
2018-12-09T15:34:53.461Z,11.67
2018-12-09T15:37:20.650Z,10.87
2018-12-09T15:39:47.972Z,12.90
2018-12-09T15:42:15.042Z,15.00
2018-12-09T15:44:42.246Z,12.87
2018-12-09T15:47:09.459Z,12.40
2018-12-09T15:49:36.548Z,14.90
2018-12-09T15:52:04.591Z,16.43
2018-12-09T15:54:32.221Z,14.67
2018-12-09T15:56:59.322Z,14.57
2018-12-09T15:59:32.065Z,11.70
2018-12-09T16:01:55.510Z,19.10
2018-12-09T16:04:22.718Z,16.50
2018-12-09T16:06:49.915Z,20.53
2018-12-09T16:09:17.110Z,17.30
2018-12-09T16:11:44.206Z,16.03
2018-12-09T16:14:11.294Z,18.07
2018-12-09T16:16:38.599Z,16.20
2018-12-09T16:19:05.779Z,18.13
2018-12-09T16:21:32.856Z,16.83
2018-12-09T16:23:59.915Z,17.33
2018-12-09T16:26:27.099Z,18.20
2018-12-09T16:28:54.195Z,15.17
2018-12-09T16:31:21.705Z,15.60
2018-12-09T16:33:48.877Z,11.43
2018-12-09T16:36:15.967Z,17.67
2018-12-09T16:38:43.043Z,14.97
2018-12-09T16:41:10.120Z,19.90
2018-12-09T16:43:37.190Z,16.07
2018-12-09T16:46:04.378Z,20.70
2018-12-09T16:48:31.555Z,17.67
2018-12-09T16:50:58.620Z,15.77
2018-12-09T16:53:25.802Z,14.93
2018-12-09T16:55:52.994Z,14.70
2018-12-09T16:58:20.171Z,16.57
2018-12-09T17:00:47.243Z,16.67
2018-12-09T17:03:14.311Z,16.50
2018-12-09T17:05:41.398Z,12.57
2018-12-09T17:08:08.458Z,19.70
2018-12-09T17:10:35.543Z,13.20
2018-12-09T17:13:02.622Z,17.67
2018-12-09T17:15:29.802Z,15.53
2018-12-09T17:17:57.006Z,16.50
2018-12-09T17:20:24.084Z,17.07
2018-12-09T17:22:51.275Z,15.20
2018-12-09T17:25:18.374Z,15.90
2018-12-09T17:27:45.572Z,17.50
2018-12-09T17:30:13.569Z,15.25
2018-12-09T17:32:40.678Z,16.43
2018-12-09T17:35:07.922Z,13.07
2018-12-09T17:37:35.173Z,17.00
2018-12-09T17:40:02.611Z,12.10
2018-12-09T17:42:29.703Z,14.17
2018-12-09T17:44:56.779Z,14.23
2018-12-09T17:47:23.856Z,13.10
2018-12-09T17:49:50.942Z,15.70
2018-12-09T17:52:18.042Z,12.63
2018-12-09T17:57:11.851Z,14.70
2018-12-09T17:59:39.028Z,15.30
2018-12-09T18:02:06.210Z,14.83
2018-12-09T18:04:33.506Z,12.80
2018-12-09T18:09:27.311Z,16.53
2018-12-09T18:11:54.374Z,20.63
2018-12-09T18:14:21.447Z,15.97
2018-12-09T18:16:48.626Z,15.60
2018-12-09T18:19:15.722Z,20.70
2018-12-09T18:21:43.002Z,17.90
2018-12-09T18:24:10.290Z,20.80
2018-12-09T18:26:37.471Z,19.60
2018-12-09T18:29:04.536Z,22.30
2018-12-09T18:33:59.295Z,19.00
2018-12-09T18:36:26.979Z,17.40
2018-12-09T18:38:54.284Z,17.50
2018-12-09T18:41:21.481Z,18.65
2018-12-09T18:43:48.558Z,17.95
2018-12-09T18:46:16.423Z,16.73
2018-12-09T18:48:43.586Z,21.60
2018-12-09T18:51:10.855Z,15.80
2018-12-09T18:56:04.685Z,12.37
2018-12-09T18:58:31.870Z,16.17
2018-12-09T19:00:58.942Z,15.63
2018-12-09T19:03:26.020Z,13.80
2018-12-09T19:05:53.326Z,10.50
2018-12-09T19:08:20.626Z,8.93
2018-12-09T19:10:47.919Z,10.47
2018-12-09T19:13:15.047Z,10.70
2018-12-09T19:15:42.218Z,10.30
2018-12-09T19:18:09.531Z,4.73
2018-12-09T19:20:36.722Z,8.80
2018-12-09T19:23:03.927Z,9.47
2018-12-09T19:25:30.990Z,4.53
2018-12-09T19:27:58.071Z,5.17
2018-12-09T19:30:25.258Z,5.13
2018-12-09T19:32:52.434Z,7.37
2018-12-09T19:35:19.727Z,6.93
2018-12-09T19:37:46.887Z,7.87
2018-12-09T19:40:14.072Z,11.80
2018-12-09T19:42:41.157Z,7.53
2018-12-09T19:45:08.485Z,10.50
2018-12-09T19:47:35.683Z,9.00
2018-12-09T19:50:03.091Z,12.10
2018-12-09T19:52:30.291Z,11.37
2018-12-09T19:54:57.375Z,11.50
2018-12-09T19:57:24.443Z,11.67
2018-12-09T19:59:51.514Z,9.83
2018-12-09T20:02:18.802Z,10.33
2018-12-09T20:04:46.965Z,11.73
2018-12-09T20:07:14.284Z,12.10
2018-12-09T20:09:41.367Z,6.10
2018-12-09T20:12:08.658Z,13.77
2018-12-09T20:14:35.730Z,9.83
2018-12-09T20:17:03.089Z,6.57
2018-12-09T20:19:30.271Z,14.17
2018-12-09T20:21:57.352Z,12.70
2018-12-09T20:24:24.419Z,9.70
2018-12-09T20:26:51.492Z,11.93
2018-12-09T20:29:18.599Z,12.20
2018-12-09T20:31:45.668Z,10.30
2018-12-09T20:34:12.729Z,11.97
2018-12-09T20:36:39.769Z,10.17
2018-12-09T20:39:07.526Z,10.97
2018-12-09T20:41:34.859Z,11.23
2018-12-09T20:44:02.030Z,10.97
2018-12-09T20:46:29.223Z,11.13
2018-12-09T20:48:56.279Z,9.47
2018-12-09T20:51:23.482Z,11.07
2018-12-09T20:53:50.566Z,9.67
2018-12-09T20:56:17.735Z,7.97
2018-12-09T20:58:44.799Z,10.33
2018-12-09T21:01:11.887Z,7.20
2018-12-09T21:03:38.947Z,11.47
2018-12-09T21:06:06.122Z,11.53
2018-12-09T21:08:33.427Z,10.27
2018-12-09T21:11:00.650Z,10.70
2018-12-09T21:13:27.719Z,8.70
2018-12-09T21:15:54.778Z,8.30
2018-12-09T21:18:21.972Z,11.93
2018-12-09T21:20:49.143Z,7.97
2018-12-09T21:23:16.326Z,11.37
2018-12-09T21:25:43.398Z,17.10
2018-12-09T21:28:10.473Z,8.90
2018-12-09T21:30:37.658Z,10.93
2018-12-09T21:33:04.741Z,9.37
2018-12-09T21:35:31.901Z,13.70
2018-12-09T21:37:58.976Z,8.93
2018-12-09T21:40:26.156Z,15.23
2018-12-09T21:42:53.223Z,16.37
2018-12-09T21:45:20.415Z,12.77
2018-12-09T21:47:47.466Z,10.73
2018-12-09T21:50:14.530Z,11.33
2018-12-09T21:52:41.591Z,11.10
2018-12-09T21:55:08.764Z,17.83
2018-12-09T21:57:35.963Z,12.37
2018-12-09T22:00:03.548Z,15.80
2018-12-09T22:02:30.614Z,11.37
2018-12-09T22:04:57.708Z,11.70
2018-12-09T22:07:24.879Z,12.57
2018-12-09T22:09:51.977Z,10.97
2018-12-09T22:12:19.155Z,13.33
2018-12-09T22:14:46.479Z,13.30
2018-12-09T22:17:13.766Z,17.27
2018-12-09T22:19:41.054Z,9.07
2018-12-09T22:22:08.235Z,9.30
2018-12-09T22:24:35.422Z,12.47
2018-12-09T22:27:02.715Z,10.30
2018-12-09T22:29:29.774Z,9.23
2018-12-09T22:31:56.867Z,11.43
2018-12-09T22:34:23.923Z,12.60
2018-12-09T22:36:51.102Z,12.00
2018-12-09T22:39:18.188Z,16.43
2018-12-09T22:41:45.266Z,12.53
2018-12-09T22:44:12.446Z,15.07
2018-12-09T22:46:39.518Z,11.60
2018-12-09T22:49:06.626Z,11.30
2018-12-09T22:51:33.972Z,9.17
2018-12-09T22:54:01.076Z,11.03
2018-12-09T22:56:28.270Z,11.93
2018-12-09T22:58:55.483Z,17.37
2018-12-09T23:01:22.697Z,13.40
2018-12-09T23:03:50.001Z,9.43
2018-12-09T23:06:17.207Z,16.13
2018-12-09T23:08:44.395Z,11.63
2018-12-09T23:11:11.694Z,9.53
2018-12-09T23:13:38.879Z,12.10
2018-12-09T23:16:06.156Z,10.53
2018-12-09T23:18:33.219Z,10.93
2018-12-09T23:21:00.512Z,7.53
2018-12-09T23:23:27.614Z,11.80
2018-12-09T23:25:54.744Z,10.37
2018-12-09T23:28:21.816Z,7.87
2018-12-09T23:30:49.011Z,9.17
2018-12-09T23:33:16.195Z,6.53
2018-12-09T23:35:43.275Z,7.80
2018-12-09T23:38:10.354Z,11.03
2018-12-09T23:40:37.434Z,8.73
2018-12-09T23:43:04.619Z,15.10
2018-12-09T23:45:31.679Z,10.10
2018-12-09T23:47:58.858Z,10.37
2018-12-09T23:50:25.943Z,12.93
2018-12-09T23:52:53.002Z,7.03
2018-12-09T23:55:20.207Z,9.50
2018-12-09T23:57:47.286Z,10.00
